createdAt,value
2018-12-05T00:00:19.728Z,9.03
2018-12-05T00:02:48.265Z,8.37
2018-12-05T00:05:17.859Z,7.20
2018-12-05T00:07:47.933Z,8.90
2018-12-05T00:10:17.392Z,7.63
2018-12-05T00:12:47.073Z,8.60
2018-12-05T00:15:16.501Z,7.07
2018-12-05T00:17:45.719Z,8.17
2018-12-05T00:20:15.296Z,7.73
2018-12-05T00:22:44.009Z,8.17
2018-12-05T00:25:12.479Z,7.43
2018-12-05T00:27:40.962Z,8.90
2018-12-05T00:30:09.700Z,8.30
2018-12-05T00:32:38.150Z,7.40
2018-12-05T00:35:06.452Z,7.50
2018-12-05T00:37:34.822Z,9.03
2018-12-05T00:40:05.022Z,7.80
2018-12-05T00:42:33.535Z,7.60
2018-12-05T00:45:01.856Z,6.90
2018-12-05T00:47:32.041Z,8.13
2018-12-05T00:50:00.711Z,7.70
2018-12-05T00:52:29.163Z,7.97
2018-12-05T00:54:59.141Z,8.00
2018-12-05T00:57:28.413Z,7.70
2018-12-05T00:59:57.008Z,8.20
2018-12-05T01:02:26.550Z,7.03
2018-12-05T01:04:54.955Z,8.33
2018-12-05T01:07:23.349Z,6.60
2018-12-05T01:09:52.320Z,6.90
2018-12-05T01:12:20.684Z,7.20
2018-12-05T01:14:49.183Z,7.97
2018-12-05T01:17:18.544Z,7.00
2018-12-05T01:19:46.963Z,8.20
2018-12-05T01:22:15.342Z,7.97
2018-12-05T01:24:43.811Z,7.10
2018-12-05T01:27:12.169Z,6.10
2018-12-05T01:29:40.608Z,6.73
2018-12-05T01:32:09.607Z,6.73
2018-12-05T01:34:37.966Z,6.80
2018-12-05T01:37:06.285Z,7.77
2018-12-05T01:39:34.643Z,7.07
2018-12-05T01:42:03.029Z,6.30
2018-12-05T01:44:31.352Z,6.57
2018-12-05T01:46:59.716Z,6.90
2018-12-05T01:49:28.071Z,6.20
2018-12-05T01:51:56.451Z,7.20
2018-12-05T01:54:24.787Z,6.63
2018-12-05T01:56:53.167Z,6.77
2018-12-05T01:59:21.549Z,7.27
2018-12-05T02:01:50.004Z,7.70
2018-12-05T02:04:18.429Z,5.97
2018-12-05T02:06:46.772Z,5.97
2018-12-05T02:09:15.124Z,6.43
2018-12-05T02:11:43.487Z,6.67
2018-12-05T02:14:11.887Z,6.03
2018-12-05T02:16:40.345Z,6.63
2018-12-05T02:19:08.760Z,6.87
2018-12-05T02:21:37.130Z,7.93
2018-12-05T02:24:05.589Z,6.57
2018-12-05T02:26:34.586Z,6.37
2018-12-05T02:29:03.025Z,6.20
2018-12-05T02:31:32.375Z,5.83
2018-12-05T02:34:02.263Z,6.80
2018-12-05T02:36:30.664Z,6.80
2018-12-05T02:38:59.242Z,5.40
2018-12-05T02:41:29.145Z,6.20
2018-12-05T02:43:59.482Z,6.70
2018-12-05T02:46:27.801Z,6.93
2018-12-05T02:48:56.139Z,6.40
2018-12-05T02:51:24.598Z,6.33
2018-12-05T02:53:53.007Z,5.27
2018-12-05T02:56:23.246Z,5.63
2018-12-05T02:58:51.684Z,6.33
2018-12-05T03:01:20.945Z,6.13
2018-12-05T03:03:49.379Z,6.20
2018-12-05T03:06:17.792Z,6.23
2018-12-05T03:08:46.170Z,6.60
2018-12-05T03:11:16.258Z,9.03
2018-12-05T03:13:44.748Z,8.27
2018-12-05T03:16:13.169Z,8.73
2018-12-05T03:18:41.836Z,8.67
2018-12-05T03:21:10.337Z,10.37
2018-12-05T03:23:39.003Z,8.43
2018-12-05T03:26:07.383Z,9.83
2018-12-05T03:28:35.849Z,7.83
2018-12-05T03:31:06.185Z,7.77
2018-12-05T03:33:35.436Z,7.90
2018-12-05T03:36:03.805Z,7.50
2018-12-05T03:38:33.970Z,8.07
2018-12-05T03:41:02.434Z,8.57
2018-12-05T03:43:30.834Z,7.70
2018-12-05T03:46:01.389Z,6.40
2018-12-05T03:48:29.845Z,6.80
2018-12-05T03:50:58.388Z,8.43
2018-12-05T03:53:29.597Z,6.97
2018-12-05T03:55:58.092Z,8.63
2018-12-05T03:58:27.614Z,7.13
2018-12-05T04:00:57.447Z,7.23
2018-12-05T04:03:26.649Z,5.93
2018-12-05T04:05:55.537Z,6.87
2018-12-05T04:08:25.123Z,7.53
2018-12-05T04:10:54.182Z,6.70
2018-12-05T04:13:23.281Z,6.40
2018-12-05T04:15:53.282Z,7.37
2018-12-05T04:18:21.719Z,6.40
2018-12-05T04:20:50.200Z,6.07
2018-12-05T04:23:18.619Z,6.13
2018-12-05T04:25:47.060Z,7.00
2018-12-05T04:28:15.472Z,7.47
2018-12-05T04:30:43.932Z,6.93
2018-12-05T04:33:12.341Z,6.47
2018-12-05T04:35:41.374Z,6.97
2018-12-05T04:38:11.737Z,6.63
2018-12-05T04:40:40.437Z,6.40
2018-12-05T04:43:09.659Z,6.60
2018-12-05T04:45:38.004Z,7.97
2018-12-05T04:48:06.411Z,7.90
2018-12-05T04:50:36.625Z,7.43
2018-12-05T04:53:05.179Z,7.03
2018-12-05T04:55:33.631Z,7.53
2018-12-05T04:58:03.583Z,7.50
2018-12-05T05:00:32.062Z,6.43
2018-12-05T05:03:00.444Z,7.80
2018-12-05T05:05:30.403Z,6.60
2018-12-05T05:07:58.836Z,8.00
2018-12-05T05:10:27.507Z,7.00
2018-12-05T05:12:55.913Z,6.70
2018-12-05T05:15:25.035Z,6.47
2018-12-05T05:17:53.486Z,5.97
2018-12-05T05:20:22.992Z,7.60
2018-12-05T05:22:51.676Z,7.33
2018-12-05T05:25:21.778Z,7.80
2018-12-05T05:27:52.016Z,7.77
2018-12-05T05:30:21.370Z,7.00
2018-12-05T05:32:52.901Z,7.50
2018-12-05T05:35:22.525Z,7.90
2018-12-05T05:37:51.379Z,10.57
2018-12-05T05:40:21.709Z,10.60
2018-12-05T05:42:50.632Z,11.90
2018-12-05T05:45:19.033Z,11.80
2018-12-05T05:47:47.638Z,12.53
2018-12-05T05:50:16.631Z,12.00
2018-12-05T05:52:44.961Z,12.30
2018-12-05T05:55:13.734Z,11.87
2018-12-05T05:57:42.168Z,14.50
2018-12-05T06:00:10.615Z,12.97
2018-12-05T06:02:39.504Z,13.27
2018-12-05T06:05:08.280Z,14.10
2018-12-05T06:07:36.776Z,14.23
2018-12-05T06:10:07.504Z,15.40
2018-12-05T06:12:36.465Z,13.93
2018-12-05T06:15:06.343Z,12.63
2018-12-05T06:17:37.141Z,15.10
2018-12-05T06:20:06.573Z,13.30
2018-12-05T06:22:35.784Z,15.83
2018-12-05T06:25:05.370Z,12.63
2018-12-05T06:27:33.946Z,13.60
2018-12-05T06:30:02.425Z,13.10
2018-12-05T06:32:31.634Z,13.70
2018-12-05T06:35:00.134Z,15.83
2018-12-05T06:37:30.517Z,16.93
2018-12-05T06:39:59.906Z,13.67
2018-12-05T06:42:28.420Z,13.57
2018-12-05T06:44:57.820Z,15.13
2018-12-05T06:47:27.930Z,14.20
2018-12-05T06:49:56.768Z,13.53
2018-12-05T06:52:25.177Z,9.87
2018-12-05T06:54:53.850Z,9.20
2018-12-05T06:57:22.299Z,10.53
2018-12-05T06:59:50.905Z,11.00
2018-12-05T07:02:19.476Z,11.77
2018-12-05T07:04:49.587Z,11.67
2018-12-05T07:07:17.936Z,10.80
2018-12-05T07:09:46.590Z,11.60
2018-12-05T07:12:14.995Z,12.53
2018-12-05T07:14:44.585Z,13.63
2018-12-05T07:17:12.945Z,12.10
2018-12-05T07:19:41.400Z,13.03
2018-12-05T07:22:09.793Z,13.90
2018-12-05T07:24:38.179Z,13.13
2018-12-05T07:27:06.580Z,13.60
2018-12-05T07:29:35.131Z,14.00
2018-12-05T07:32:04.512Z,10.43
2018-12-05T07:34:33.544Z,10.27
2018-12-05T07:37:01.897Z,9.90
2018-12-05T07:39:30.302Z,9.27
2018-12-05T07:41:58.699Z,10.97
2018-12-05T07:44:27.062Z,9.70
2018-12-05T07:46:55.429Z,11.23
2018-12-05T07:49:23.886Z,11.47
2018-12-05T07:51:52.290Z,10.90
2018-12-05T07:54:21.409Z,10.47
2018-12-05T07:56:49.786Z,11.93
2018-12-05T07:59:18.268Z,12.83
2018-12-05T08:01:46.687Z,11.90
2018-12-05T08:04:15.150Z,12.70
2018-12-05T08:06:43.599Z,13.10
2018-12-05T08:09:12.011Z,13.40
2018-12-05T08:11:40.359Z,11.90
2018-12-05T08:14:09.628Z,15.07
2018-12-05T08:16:38.020Z,14.40
2018-12-05T08:19:06.419Z,12.70
2018-12-05T08:21:34.779Z,14.80
2018-12-05T08:24:04.757Z,16.03
2018-12-05T08:26:35.299Z,16.23
2018-12-05T08:29:03.688Z,17.80
2018-12-05T08:31:32.927Z,14.77
2018-12-05T08:34:02.596Z,13.23
2018-12-05T08:36:30.961Z,12.40
2018-12-05T08:38:59.901Z,12.80
2018-12-05T08:41:29.016Z,13.73
2018-12-05T08:43:57.411Z,13.93
2018-12-05T08:46:25.741Z,12.70
2018-12-05T08:48:54.745Z,11.87
2018-12-05T08:51:23.107Z,13.77
2018-12-05T08:53:51.719Z,13.73
2018-12-05T08:56:20.084Z,14.13
2018-12-05T08:58:48.483Z,14.47
2018-12-05T09:01:16.844Z,13.70
2018-12-05T09:03:45.204Z,13.70
2018-12-05T09:06:14.216Z,14.50
2018-12-05T09:08:42.905Z,14.30
2018-12-05T09:11:11.292Z,14.13
2018-12-05T09:13:39.698Z,16.30
2018-12-05T09:16:08.067Z,15.70
2018-12-05T09:18:36.491Z,19.40
2018-12-05T09:21:05.097Z,18.60
2018-12-05T09:23:33.486Z,38.73
2018-12-05T09:26:01.827Z,29.13
2018-12-05T09:28:30.226Z,28.30
2018-12-05T09:30:58.571Z,17.33
2018-12-05T09:33:26.977Z,17.40
2018-12-05T09:35:55.357Z,15.90
2018-12-05T09:38:23.963Z,16.37
2018-12-05T09:40:52.388Z,13.00
2018-12-05T09:43:20.757Z,16.17
2018-12-05T09:45:49.128Z,15.37
2018-12-05T09:48:17.447Z,15.93
2018-12-05T09:50:45.819Z,17.27
2018-12-05T09:53:14.149Z,17.60
2018-12-05T09:55:42.486Z,16.20
2018-12-05T09:58:10.833Z,16.87
2018-12-05T10:00:40.126Z,15.23
2018-12-05T10:03:08.538Z,16.37
2018-12-05T10:05:36.886Z,14.47
2018-12-05T10:08:05.669Z,15.70
2018-12-05T10:10:34.507Z,16.97
2018-12-05T10:13:02.872Z,16.97
2018-12-05T10:15:31.327Z,15.20
2018-12-05T10:17:59.708Z,15.73
2018-12-05T10:20:28.055Z,15.83
2018-12-05T10:22:56.401Z,14.30
2018-12-05T10:25:24.906Z,15.50
2018-12-05T10:27:53.257Z,17.10
2018-12-05T10:30:21.649Z,14.87
2018-12-05T10:32:49.989Z,13.90
2018-12-05T10:35:18.374Z,15.57
2018-12-05T10:37:46.764Z,15.00
2018-12-05T10:40:15.310Z,13.47
2018-12-05T10:42:43.684Z,15.57
2018-12-05T10:45:12.041Z,13.77
2018-12-05T10:47:40.437Z,13.57
2018-12-05T10:50:08.860Z,14.53
2018-12-05T10:52:37.196Z,13.70
2018-12-05T10:55:05.628Z,13.40
2018-12-05T10:57:34.107Z,13.43
2018-12-05T11:00:02.477Z,16.37
2018-12-05T11:02:36.158Z,14.50
2018-12-05T11:05:09.813Z,13.67
2018-12-05T11:07:43.318Z,13.50
2018-12-05T11:10:16.916Z,13.70
2018-12-05T11:12:51.445Z,13.07
2018-12-05T11:15:25.092Z,14.90
2018-12-05T11:17:58.852Z,13.57
2018-12-05T11:20:32.632Z,12.97
2018-12-05T11:23:06.420Z,15.50
2018-12-05T11:25:35.144Z,14.47
2018-12-05T11:28:04.298Z,14.07
2018-12-05T11:30:32.697Z,13.20
2018-12-05T11:33:01.104Z,15.80
2018-12-05T11:35:29.504Z,14.87
2018-12-05T11:37:57.837Z,14.43
2018-12-05T11:40:26.195Z,16.13
2018-12-05T11:42:54.648Z,18.50
2018-12-05T11:45:23.075Z,15.57
2018-12-05T11:47:51.404Z,15.30
2018-12-05T11:50:19.776Z,13.60
2018-12-05T11:52:48.340Z,13.47
2018-12-05T11:55:16.701Z,16.03
2018-12-05T11:57:45.924Z,17.57
2018-12-05T12:00:14.353Z,17.10
2018-12-05T12:02:42.780Z,15.77
2018-12-05T12:05:11.617Z,17.33
2018-12-05T12:07:40.006Z,16.87
2018-12-05T12:10:08.316Z,13.97
2018-12-05T12:12:42.007Z,16.43
2018-12-05T12:15:10.392Z,14.13
2018-12-05T12:17:41.858Z,12.50
2018-12-05T12:20:10.636Z,9.47
2018-12-05T12:22:38.969Z,9.87
2018-12-05T12:25:07.355Z,8.97
2018-12-05T12:27:35.763Z,9.30
2018-12-05T12:30:04.304Z,8.30
2018-12-05T12:32:32.666Z,8.97
2018-12-05T12:35:01.027Z,8.67
2018-12-05T12:37:29.446Z,8.57
2018-12-05T12:39:57.860Z,8.77
2018-12-05T12:42:26.443Z,10.37
2018-12-05T12:44:54.779Z,9.00
2018-12-05T12:47:23.162Z,9.83
2018-12-05T12:49:51.745Z,9.27
2018-12-05T12:52:20.108Z,9.37
2018-12-05T12:54:48.468Z,10.10
2018-12-05T12:57:16.784Z,9.57
2018-12-05T12:59:45.289Z,9.97
2018-12-05T13:02:13.667Z,11.13
2018-12-05T13:04:42.059Z,10.73
2018-12-05T13:07:10.471Z,12.47
2018-12-05T13:09:39.698Z,12.03
2018-12-05T13:12:08.745Z,12.80
2018-12-05T13:14:37.111Z,13.10
2018-12-05T13:17:06.284Z,10.13
2018-12-05T13:19:35.255Z,9.40
2018-12-05T13:22:04.043Z,11.23
2018-12-05T13:24:32.401Z,9.30
2018-12-05T13:27:00.769Z,8.63
2018-12-05T13:29:29.976Z,10.03
2018-12-05T13:31:59.158Z,9.37
2018-12-05T13:34:27.533Z,9.10
2018-12-05T13:36:55.889Z,10.10
2018-12-05T13:39:24.341Z,11.30
2018-12-05T13:41:53.652Z,9.90
2018-12-05T13:44:22.308Z,10.20
2018-12-05T13:46:50.747Z,10.23
2018-12-05T13:49:19.190Z,10.57
2018-12-05T13:51:47.591Z,10.93
2018-12-05T13:54:16.466Z,9.93
2018-12-05T13:56:44.962Z,10.00
2018-12-05T13:59:13.352Z,10.47
2018-12-05T14:01:41.746Z,9.10
2018-12-05T14:04:10.142Z,11.33
2018-12-05T14:06:38.529Z,10.30
2018-12-05T14:09:07.673Z,11.30
2018-12-05T14:11:35.988Z,11.60
2018-12-05T14:14:05.571Z,12.47
2018-12-05T14:16:34.254Z,12.80
2018-12-05T14:19:03.084Z,17.80
2018-12-05T14:21:31.437Z,13.10
2018-12-05T14:23:59.872Z,14.63
2018-12-05T14:26:28.204Z,16.40
2018-12-05T14:28:56.540Z,14.70
2018-12-05T14:31:24.905Z,13.67
2018-12-05T14:33:53.274Z,11.93
2018-12-05T14:36:21.649Z,10.43
2018-12-05T14:38:51.248Z,11.33
2018-12-05T14:41:19.692Z,11.20
2018-12-05T14:43:48.175Z,10.53
2018-12-05T14:46:16.582Z,10.33
2018-12-05T14:48:45.207Z,9.63
2018-12-05T14:51:13.675Z,8.80
2018-12-05T14:53:42.157Z,10.20
2018-12-05T14:56:10.553Z,11.60
2018-12-05T14:58:38.873Z,10.77
2018-12-05T15:01:07.089Z,10.77
2018-12-05T15:03:35.541Z,11.10
2018-12-05T15:06:03.926Z,10.70
2018-12-05T15:08:32.321Z,9.87
2018-12-05T15:11:01.569Z,10.77
2018-12-05T15:13:30.295Z,11.63
2018-12-05T15:15:59.435Z,12.90
2018-12-05T15:18:27.811Z,11.00
2018-12-05T15:20:56.278Z,10.10
2018-12-05T15:23:24.643Z,12.20
2018-12-05T15:25:52.996Z,12.30
2018-12-05T15:28:21.337Z,11.37
2018-12-05T15:30:49.835Z,21.73
2018-12-05T15:33:18.176Z,21.83
2018-12-05T15:35:46.517Z,17.10
2018-12-05T15:38:14.877Z,19.37
2018-12-05T15:40:43.266Z,15.37
2018-12-05T15:43:11.643Z,24.00
2018-12-05T15:45:40.387Z,25.13
2018-12-05T15:48:08.820Z,19.03
2018-12-05T15:50:37.152Z,14.97
2018-12-05T15:53:06.874Z,15.40
2018-12-05T15:55:35.274Z,15.53
2018-12-05T15:58:03.765Z,15.77
2018-12-05T16:00:32.151Z,15.47
2018-12-05T16:03:00.607Z,15.33
2018-12-05T16:05:29.331Z,14.43
2018-12-05T16:07:57.676Z,15.00
2018-12-05T16:10:26.064Z,12.90
2018-12-05T16:12:54.413Z,13.60
2018-12-05T16:15:22.760Z,13.83
2018-12-05T16:17:51.110Z,14.13
2018-12-05T16:24:19.708Z,11.47
2018-12-05T16:27:09.522Z,11.43
2018-12-05T16:29:48.768Z,10.40
2018-12-05T16:32:33.915Z,10.30
2018-12-05T16:35:03.184Z,8.67
2018-12-05T16:37:32.008Z,9.53
2018-12-05T16:40:00.785Z,9.93
2018-12-05T16:42:29.885Z,9.87
2018-12-05T16:44:58.707Z,9.50
2018-12-05T16:47:28.452Z,11.40
2018-12-05T16:49:57.159Z,8.90
2018-12-05T16:52:26.034Z,9.07
2018-12-05T16:54:54.892Z,10.37
2018-12-05T16:57:23.630Z,10.10
2018-12-05T16:59:53.152Z,12.50
2018-12-05T17:02:21.527Z,11.40
2018-12-05T17:04:49.908Z,12.40
2018-12-05T17:07:18.257Z,12.87
2018-12-05T17:09:46.624Z,14.60
2018-12-05T17:12:15.279Z,15.23
2018-12-05T17:14:43.656Z,15.30
2018-12-05T17:17:13.081Z,15.50
2018-12-05T17:19:41.453Z,15.40
2018-12-05T17:22:09.868Z,15.87
2018-12-05T17:24:38.249Z,17.23
2018-12-05T17:27:08.011Z,15.50
2018-12-05T17:29:36.372Z,16.43
2018-12-05T17:32:05.299Z,17.23
2018-12-05T17:34:34.215Z,17.57
2018-12-05T17:37:02.573Z,17.33
2018-12-05T17:39:30.945Z,18.13
2018-12-05T17:41:59.416Z,17.00
2018-12-05T17:44:27.839Z,18.47
2018-12-05T17:46:56.792Z,15.20
2018-12-05T17:49:25.184Z,17.67
2018-12-05T17:51:53.618Z,17.00
2018-12-05T17:54:22.882Z,17.03
2018-12-05T17:56:51.412Z,16.80
2018-12-05T17:59:20.177Z,17.07
2018-12-05T18:01:48.668Z,17.33
2018-12-05T18:04:18.274Z,16.77
2018-12-05T18:06:46.721Z,16.57
2018-12-05T18:09:15.105Z,15.70
2018-12-05T18:11:43.513Z,17.97
2018-12-05T18:14:11.922Z,15.77
2018-12-05T18:16:40.272Z,15.20
2018-12-05T18:19:08.715Z,18.00
2018-12-05T18:21:37.070Z,16.60
2018-12-05T18:24:05.484Z,16.97
2018-12-05T18:26:33.891Z,16.77
2018-12-05T18:29:02.481Z,16.60
2018-12-05T18:31:37.428Z,15.70
2018-12-05T18:34:05.841Z,16.20
2018-12-05T18:36:34.225Z,81.33
2018-12-05T18:39:02.722Z,48.70
2018-12-05T18:41:31.132Z,21.00
2018-12-05T18:43:59.495Z,18.23
2018-12-05T18:46:27.858Z,32.90
2018-12-05T18:48:56.302Z,21.47
2018-12-05T18:51:24.769Z,21.53
2018-12-05T18:53:53.996Z,24.27
2018-12-05T18:56:22.353Z,20.80
2018-12-05T18:58:50.696Z,21.27
2018-12-05T19:01:19.049Z,20.30
2018-12-05T19:03:47.445Z,21.00
2018-12-05T19:06:16.803Z,22.00
2018-12-05T19:08:45.141Z,20.30
2018-12-05T19:11:13.497Z,18.43
2018-12-05T19:13:47.098Z,20.27
2018-12-05T19:16:15.547Z,18.80
2018-12-05T19:18:44.989Z,20.30
2018-12-05T19:21:13.391Z,17.90
2018-12-05T19:23:41.876Z,19.50
2018-12-05T19:26:10.331Z,21.10
2018-12-05T19:28:39.030Z,17.50
2018-12-05T19:31:08.248Z,18.50
2018-12-05T19:33:36.703Z,18.03
2018-12-05T19:36:05.751Z,19.37
2018-12-05T19:38:34.789Z,20.00
2018-12-05T19:41:03.132Z,22.63
2018-12-05T19:43:31.715Z,19.13
2018-12-05T19:46:00.119Z,19.87
2018-12-05T19:48:28.972Z,18.87
2018-12-05T19:50:57.965Z,18.00
2018-12-05T19:53:26.405Z,19.70
2018-12-05T19:55:54.826Z,20.60
2018-12-05T19:58:23.197Z,19.13
2018-12-05T20:00:51.651Z,19.70
2018-12-05T20:03:20.026Z,19.67
2018-12-05T20:05:48.405Z,20.80
2018-12-05T20:08:16.793Z,19.40
2018-12-05T20:10:45.178Z,22.10
2018-12-05T20:13:14.343Z,20.50
2018-12-05T20:15:42.748Z,20.27
2018-12-05T20:18:11.096Z,21.20
2018-12-05T20:20:39.455Z,20.43
2018-12-05T20:23:07.862Z,20.90
2018-12-05T20:25:36.357Z,24.77
2018-12-05T20:28:04.771Z,21.93
2018-12-05T20:30:33.158Z,21.40
2018-12-05T20:33:01.568Z,25.30
2018-12-05T20:35:30.012Z,23.30
2018-12-05T20:37:58.423Z,21.20
2018-12-05T20:40:27.352Z,24.20
2018-12-05T20:42:55.693Z,25.60
2018-12-05T20:45:24.364Z,24.60
2018-12-05T20:47:52.961Z,23.30
2018-12-05T20:50:21.369Z,23.80
2018-12-05T20:52:49.737Z,25.90
2018-12-05T20:55:18.098Z,27.00
2018-12-05T20:57:46.500Z,25.93
2018-12-05T21:00:14.876Z,27.27
2018-12-05T21:02:44.149Z,26.03
2018-12-05T21:05:14.301Z,23.80
2018-12-05T21:07:42.735Z,23.13
2018-12-05T21:10:17.909Z,23.23
2018-12-05T21:12:46.401Z,23.53
2018-12-05T21:15:16.170Z,22.70
2018-12-05T21:17:44.524Z,20.17
2018-12-05T21:20:12.957Z,22.43
2018-12-05T21:22:47.273Z,22.77
2018-12-05T21:25:12.959Z,33.40
2018-12-05T21:27:41.547Z,26.57
2018-12-05T21:30:09.932Z,39.07
2018-12-05T21:32:38.273Z,30.40
2018-12-05T21:35:06.610Z,47.70
2018-12-05T21:37:35.327Z,34.00
2018-12-05T21:40:04.488Z,42.63
2018-12-05T21:42:34.007Z,50.03
2018-12-05T21:45:02.403Z,53.30
2018-12-05T21:47:33.842Z,31.30
2018-12-05T21:50:02.486Z,34.37
2018-12-05T21:52:30.959Z,28.00
2018-12-05T21:54:59.468Z,24.53
2018-12-05T21:57:28.511Z,26.17
2018-12-05T21:59:57.927Z,25.00
2018-12-05T22:02:26.296Z,26.03
2018-12-05T22:04:56.435Z,24.93
2018-12-05T22:07:24.798Z,38.57
2018-12-05T22:09:53.241Z,31.43
2018-12-05T22:12:22.790Z,50.33
2018-12-05T22:14:51.157Z,91.30
2018-12-05T22:17:19.673Z,62.37
2018-12-05T22:19:48.129Z,41.63
2018-12-05T22:22:17.118Z,39.30
2018-12-05T22:24:46.206Z,27.87
2018-12-05T22:27:15.466Z,29.17
2018-12-05T22:29:43.766Z,37.73
2018-12-05T22:32:13.119Z,37.70
2018-12-05T22:34:41.459Z,39.27
2018-12-05T22:37:09.810Z,26.57
2018-12-05T22:39:38.189Z,23.93
2018-12-05T22:42:06.540Z,23.50
2018-12-05T22:44:35.798Z,24.43
2018-12-05T22:47:04.169Z,22.63
2018-12-05T22:49:33.440Z,20.93
2018-12-05T22:52:02.063Z,22.77
2018-12-05T22:54:30.401Z,22.33
2018-12-05T22:57:08.924Z,23.83
2018-12-05T22:59:38.193Z,23.50
2018-12-05T23:02:06.662Z,23.63
2018-12-05T23:04:35.152Z,22.27
2018-12-05T23:07:03.700Z,22.77
2018-12-05T23:09:32.165Z,22.93
2018-12-05T23:12:00.591Z,25.70
2018-12-05T23:14:28.982Z,24.53
2018-12-05T23:16:57.441Z,23.00
2018-12-05T23:19:25.838Z,21.03
2018-12-05T23:21:54.307Z,22.13
2018-12-05T23:24:22.748Z,22.17
2018-12-05T23:26:51.184Z,22.60
2018-12-05T23:29:19.665Z,22.50
2018-12-05T23:31:48.295Z,21.10
2018-12-05T23:34:16.713Z,22.83
2018-12-05T23:36:45.110Z,20.67
2018-12-05T23:39:13.460Z,19.53
2018-12-05T23:41:41.868Z,20.87
2018-12-05T23:44:10.267Z,20.80
2018-12-05T23:46:38.737Z,21.43
2018-12-05T23:49:07.167Z,20.60
2018-12-05T23:51:35.540Z,20.77
2018-12-05T23:54:03.943Z,16.03
2018-12-05T23:56:32.318Z,18.90
2018-12-05T23:59:00.720Z,23.73
